AirNav   ATP
 
 840 users online  

2M4 G V Montgomery Airport
Forest, Mississippi, USA

GOING TO FOREST?


FAA INFORMATION EFFECTIVE 09 NOVEMBER 2017

Location

FAA Identifier: 2M4
Lat/Long: 32-21-17.8000N / 089-29-17.4000W
32-21.296667N / 089-29.290000W
32.3549444 / -89.4881667
(estimated)
Elevation: 518.3 ft. / 158.0 m (surveyed)
Variation: 02E (1985)
From city: 1 mile S of FOREST, MS
Time zone: UTC -6 (UTC -5 during Daylight Saving Time)
Zip code: 39074

Airport Operations

Airport use: Open to the public
Control tower: no
ARTCC: MEMPHIS CENTER
FSS: GREENWOOD FLIGHT SERVICE STATION
NOTAMs facility: GWO (NOTAM-D service available)
Attendance: UNATNDD
Wind indicator: lighted
Segmented circle: yes
Lights: MIRL RY 16/34 OPERATES 1700-2200; AFTER 2200 ACTVT - CTAF.
Beacon: white-green (lighted land airport)
Operates sunset to sunrise.

Airport Communications

CTAF: 122.9
UNICOM: 122.8

Nearby radio navigation aids

VOR radial/distance  VOR name  Freq  Var
MHZr100/31.3MAGNOLIA VORTAC113.2001W
MEIr263/34.7MERIDIAN VORTAC117.0005E

Airport Services

Parking: tiedowns
Airframe service: NONE
Powerplant service: NONE
Bottled oxygen: NONE
Bulk oxygen: NONE

Runway Information

Runway 16/34

Dimensions: 3602 x 75 ft. / 1098 x 23 m
Surface: asphalt, in excellent condition
Weight bearing capacity: 
Single wheel: 25.0
Runway edge lights: medium intensity
RUNWAY 16  RUNWAY 34
Latitude: 32-21.582278N32-21.011120N
Longitude: 089-29.386510W089-29.194222W
Elevation: 511.2 ft.514.0 ft.
Gradient: 0.3%0.3%
Traffic pattern: leftleft
Markings: basic, in fair conditionbasic, in fair condition
Touchdown point: yes, no lightsyes, no lights
Obstructions: 44 ft. trees, 1300 ft. from runway, 25:1 slope to clear39 ft. trees, 850 ft. from runway, 16:1 slope to clear

Airport Ownership and Management from official FAA records

Ownership: Publicly-owned
Owner: CITY OF FOREST
P.O. BOX 298
FOREST, MS 39074
Phone 601-469-2921
THE HONORABLE NANCY CHAMBERS, MAYOR OF FOREST
Manager: RANDALL GEORGE
CITY OF FOREST, P.O.BOX 298
FOREST, MS 39074
Phone 601-469-2921
CITY HALL PHONE.

Airport Operational Statistics

Aircraft based on the field: 2
Single engine airplanes: 2
    
Aircraft operations: avg 21/week *
65% transient general aviation
35% local general aviation
* for 12-month period ending 08 March 2017

Additional Remarks

PAEW; NOTAM ISSUED.

Instrument Procedures

There are no published instrument procedures at 2M4.

Some nearby airports with instrument procedures:

KJAN - Jackson-Medgar Wiley Evers International Airport (30 nm W)
KMBO - Bruce Campbell Field Airport (32 nm W)
KMPE - Philadelphia Municipal Airport (32 nm NE)
17M - Magee Municipal Airport (34 nm SW)
KHKS - Hawkins Field Airport (37 nm W)
 
Loc | Ops | Rwys | IFR | FBO | Links
Com | Nav | Svcs | Stats | Notes


 
Area around 2M4 (G V Montgomery Airport)
 
Road maps at: MapQuest Bing Google
 
Aerial photo
WARNING: Photo may not be current or correct
Aerial photo of 2M4 (G V Montgomery Airport)
Do you have a better or more recent aerial photo of G V Montgomery Airport that you would like to share? If so, please send us your photo.

 
Sectional chart

 
Airport distance calculator
Flying to G V Montgomery Airport? Find the distance to fly.

From to 2M4

Sunrise and sunset
Times for 18-Nov-2017
 Local
(UTC-6)
 Zulu
(UTC)
Morning civil twilight06:0512:05
Sunrise06:3112:31
Sunset16:5522:55
Evening civil twilight17:2123:21

Current date and time
Zulu (UTC)  19-Nov-2017 02:27:40
Local (UTC-6)  18-Nov-2017 20:27:40
 
METAR
KJAN 
30nm W 
190154Z 33022G32KT 10SM SCT038 BKN075 BKN095 16/07 A2998 RMK AO2 PK WND 32032/0115 RAE0055 SLP148 P0000 T01560072
KMBO 
32nm W 
190215Z AUTO 32017G32KT 10SM SCT036 SCT043 12/05 A3000 RMK AO2 PWINO
KHKS 
37nm W 
190153Z 33015G30KT 10SM FEW039 FEW075 FEW100 14/07 A2998 RMK AO2 PK WND 31030/0148 SLP145 T01440072
KMEI 
37nm E 
190158Z 31017G27KT 10SM FEW032 BKN065 17/12 A2989 RMK AO2 PK WND 32037/0106 WSHFT 0051 RAE15 SLP120 P0012 T01670122
KJVW 
47nm W 
190215Z AUTO 32012G25KT 10SM FEW038 SCT080 14/11 A3001 RMK AO2
KNMM 
48nm E 
190213Z AUTO 32015G29KT 10SM SCT024 BKN032 BKN080 16/11 A2991 RMK AO2 PK WND 32030/0203 PRESRR T01610111
TAF
KJAN 
30nm W 
182038Z 1821/1918 19015G23KT P6SM BKN030 OVC050 FM182200 27017G29KT P6SM VCSH BKN025 OVC030 FM190100 32018G32KT P6SM OVC025 FM190400 34015G25KT P6SM BKN035 FM190800 35010KT P6SM SKC
KHKS 
37nm W 
181749Z 1818/1918 19016G24KT P6SM SCT030 OVC040 FM182200 27017G29KT P6SM VCSH BKN025 OVC030 FM190100 32018G32KT P6SM OVC025 FM190400 34015G25KT P6SM BKN035 FM190800 35010KT P6SM SKC
KMEI 
37nm E 
181749Z 1818/1918 20017G25KT P6SM SCT025 OVC035 FM182300 24017G26KT P6SM VCSH BKN020 OVC030 FM190200 31020G29KT P6SM OVC025 FM190500 34014G20KT P6SM BKN035 FM190900 35010KT P6SM SKC
NOTAMs
Click for the latest NOTAMs
NOTAMs are issued by the DoD/FAA and will open in a separate window not controlled by AirNav.

 

 
 

Would you like to see your business listed on this page?

 If your business provides an interesting product or service to pilots, flight crews, aircraft, or users of the G V Montgomery Airport, you should consider listing it here.  To start the listing process, click on the button below
 
Add a business
 

Other Pages about G V Montgomery Airport

Update a link
 
Copyright © AirNav, LLC. All rights reserved. Privacy Policy  Contact